Weather History for Lambertville, MI

Change the Weather History Date:

Tuesday, February 19, 2013

  Actual Average (KTOL) Record (KTOL)
Temperature  
Mean Temperature 32 °F 29 °F  
Max Temperature 47 °F 37 °F 65 °F (1930)
Min Temperature 18 °F 21 °F -6 °F (1936)
Degree Days  
Heating Degree Days 32 36  
Month to date heating degree days 718  
Since 1 July heating degree days 4267  
Cooling Degree Days 0 0  
Month to date cooling degree days 0  
Year to date cooling degree days 0  
Moisture  
Dew Point 22 °F    
Average Humidity 74    
Maximum Humidity 88    
Minimum Humidity 56    
Precipitation  
Precipitation 0.00 in 0.08 in 0.44 in (1986)
Month to date precipitation 1.36  
Year to date precipitation 3.41  
Snow  
Snow 0.00 in 0.30 in - ()
Month to date snowfall 6.7  
Since 1 July snowfall 27.8  
Snow Depth -    
Sea Level Pressure  
Sea Level Pressure 29.72 in    
Wind  
Wind Speed 16 mph (WSW)    
Max Wind Speed 24 mph    
Max Gust Speed 43 mph    
Visibility 8 miles    
Events Rain , Snow    
T = Trace of Precipitation, MM = Missing Value Source: NWS Daily Summary

Daily Weather History Graph

Daily Weather History Graph

Search for Another Location

Airport:

Trip Planner

Search our weather history database for the weather conditions in past years. The results will help you decide how hot, cold, wet, or windy it might be!

Date:

Astronomy

Feb. 19, 2013 Rise Set
Actual Time 7:24 AM EST 6:13 PM EST
Civil Twilight 6:55 AM EST 6:41 PM EST
Nautical Twilight 6:23 AM EST 7:13 PM EST
Astronomical Twilight 5:51 AM EST 7:46 PM EST
Moon 12:41 PM EST (2/19) 2:57 AM EST (2/19)
Length of Visible Light 11h 45m
Length of Day
10h 49m
Waxing Gibbous, 67% of the Moon is Illuminated
Feb 19
Waxing Gibbous
Feb 25
Full
Mar 4
Last Quarter
Mar 11
New
Mar 19
First Quarter

Hourly Weather History & Observations

Time (EST) Temp. Windchill Dew Point Humidity Pressure Visibility Wind Dir Wind Speed Gust Speed Precip Events Conditions
12:15 AM 47.7 °F - 32.7 °F 56% 29.62 in 10.0 mi South 11.5 mph 18.4 mph N/A Rain Rain
12:35 AM 45.9 °F 40.4 °F 36.5 °F 70% 29.62 in 10.0 mi South 11.5 mph 20.7 mph N/A Rain Light Rain
12:55 AM 44.2 °F 38.8 °F 38.5 °F 80% 29.60 in 7.0 mi South 10.4 mph 17.3 mph N/A Rain Rain
1:15 AM 43.7 °F 36.9 °F 39.2 °F 84% 29.58 in 10.0 mi South 13.8 mph 18.4 mph N/A Rain Light Rain
1:35 AM 43.7 °F 36.9 °F 38.8 °F 83% 29.57 in 10.0 mi South 13.8 mph 21.9 mph N/A Rain Light Rain
1:55 AM 43.7 °F 36.0 °F 38.8 °F 83% 29.55 in 10.0 mi South 17.3 mph 23.0 mph N/A Rain Rain
2:15 AM 43.9 °F 35.7 °F 38.3 °F 81% 29.54 in 10.0 mi South 19.6 mph 28.8 mph N/A Rain Light Rain
2:35 AM 43.7 °F 36.0 °F 38.5 °F 82% 29.53 in 7.0 mi South 17.3 mph 27.6 mph N/A Rain Rain
2:55 AM 43.0 °F 35.4 °F 38.7 °F 85% 29.51 in 10.0 mi South 16.1 mph 24.2 mph N/A Rain Light Rain
3:15 AM 43.0 °F 35.7 °F 38.8 °F 85% 29.49 in 10.0 mi South 15.0 mph 27.6 mph N/A Rain Light Rain
3:35 AM 43.0 °F 35.1 °F 38.8 °F 85% 29.49 in 10.0 mi South 17.3 mph 23.0 mph N/A   Overcast
3:55 AM 43.2 °F 35.6 °F 39.2 °F 86% 29.47 in 5.0 mi SSW 16.1 mph 25.3 mph N/A   Drizzle
4:15 AM 43.9 °F 36.8 °F 39.7 °F 85% 29.47 in 7.0 mi SSW 15.0 mph 28.8 mph N/A   Light Drizzle
4:35 AM 44.1 °F 37.7 °F 40.1 °F 86% 29.47 in 5.0 mi SW 12.7 mph 24.2 mph N/A Rain Rain
4:55 AM 41.5 °F 33.2 °F 36.9 °F 83% 29.50 in 7.0 mi WSW 17.3 mph 42.6 mph N/A Rain Light Rain
5:15 AM 38.8 °F 30.0 °F 34.0 °F 83% 29.52 in 10.0 mi West 16.1 mph 31.1 mph N/A   Overcast
5:35 AM 37.4 °F 28.9 °F 32.9 °F 84% 29.53 in 10.0 mi WSW 13.8 mph 24.2 mph N/A   Overcast
5:55 AM 36.9 °F 28.2 °F 32.4 °F 84% 29.55 in 10.0 mi WSW 13.8 mph 23.0 mph N/A   Overcast
6:15 AM 36.1 °F 25.9 °F 32.0 °F 85% 29.57 in 7.0 mi WSW 18.4 mph 26.5 mph N/A   Overcast
6:35 AM 35.6 °F 27.1 °F 31.5 °F 85% 29.58 in 7.0 mi WSW 12.7 mph 27.6 mph N/A   Overcast
6:55 AM 34.5 °F 24.1 °F 30.7 °F 86% 29.58 in 5.0 mi WSW 17.3 mph 25.3 mph N/A   Overcast
7:15 AM 33.1 °F 22.2 °F 29.8 °F 88% 29.59 in 10.0 mi WSW 17.3 mph 28.8 mph N/A   Overcast
7:35 AM 32.0 °F 21.2 °F 27.7 °F 84% 29.61 in 10.0 mi SW 16.1 mph 26.5 mph N/A   Overcast
7:55 AM 30.6 °F 18.6 °F 26.1 °F 83% 29.62 in 10.0 mi WSW 18.4 mph 32.2 mph N/A   Overcast
8:15 AM 29.8 °F 17.0 °F 25.2 °F 83% 29.63 in 10.0 mi WSW 20.7 mph 27.6 mph N/A   Overcast
8:35 AM 29.3 °F 18.2 °F 23.7 °F 80% 29.65 in 10.0 mi WSW 15.0 mph 25.3 mph N/A   Overcast
9:15 AM 28.4 °F 17.0 °F 22.5 °F 78% 29.67 in 4.0 mi WSW 15.0 mph 24.2 mph N/A   Haze
9:35 AM 27.5 °F 14.2 °F 21.4 °F 78% 29.67 in 5.0 mi WSW 19.6 mph 28.8 mph N/A   Haze
9:55 AM 26.6 °F 15.2 °F 21.2 °F 80% 29.68 in 1.8 mi WSW 13.8 mph 23.0 mph N/A Snow Light Snow
10:15 AM 26.4 °F 14.0 °F 20.7 °F 79% 29.69 in 2.0 mi WSW 16.1 mph 25.3 mph N/A Snow Light Snow
10:35 AM 26.6 °F 13.4 °F 19.9 °F 76% 29.69 in 4.0 mi SW 18.4 mph 27.6 mph N/A Snow Light Snow
10:55 AM 26.2 °F 13.0 °F 19.2 °F 75% 29.70 in 3.0 mi WSW 18.4 mph 29.9 mph N/A Snow Light Snow
11:15 AM 26.2 °F 14.7 °F 19.2 °F 75% 29.70 in 3.0 mi WSW 13.8 mph 27.6 mph N/A Snow Light Snow
11:35 AM 25.7 °F 11.9 °F 18.1 °F 73% 29.71 in 4.0 mi WSW 19.6 mph 28.8 mph N/A Snow Light Snow
11:55 AM 25.2 °F 10.4 °F 16.5 °F 70% 29.72 in 5.0 mi WSW 21.9 mph 35.7 mph N/A Snow Light Snow
12:15 PM 26.2 °F 12.6 °F 16.5 °F 67% 29.73 in 7.0 mi WSW 19.6 mph 33.4 mph N/A Snow Light Snow
12:35 PM 25.7 °F 10.8 °F 14.0 °F 61% 29.72 in 10.0 mi West 23.0 mph 31.1 mph N/A   Overcast
12:55 PM 25.3 °F 11.4 °F 15.4 °F 66% 29.73 in 7.0 mi West 19.6 mph 27.6 mph N/A Snow Light Snow
1:15 PM 24.6 °F 10.9 °F 16.3 °F 71% 29.73 in 3.0 mi WSW 18.4 mph 28.8 mph N/A Snow Light Snow
1:35 PM 23.7 °F 8.9 °F 17.2 °F 76% 29.74 in 1.5 mi West 20.7 mph 26.5 mph N/A Snow Light Snow
1:55 PM 23.9 °F 9.9 °F 13.8 °F 65% 29.74 in 7.0 mi WSW 18.4 mph 28.8 mph N/A Snow Light Snow
2:15 PM 24.3 °F 8.6 °F 12.2 °F 60% 29.75 in 10.0 mi West 24.2 mph 33.4 mph N/A   Overcast
2:35 PM 23.9 °F 8.8 °F 12.2 °F 61% 29.76 in 10.0 mi West 21.9 mph 29.9 mph N/A   Overcast
2:55 PM 23.9 °F 8.1 °F 12.4 °F 62% 29.77 in 10.0 mi West 24.2 mph 33.4 mph N/A   Overcast
3:15 PM 22.8 °F 8.5 °F 15.1 °F 72% 29.78 in 1.8 mi West 18.4 mph 26.5 mph N/A Snow Light Snow
3:35 PM 22.8 °F 8.9 °F 13.5 °F 67% 29.79 in 5.0 mi West 17.3 mph 29.9 mph N/A Snow Light Snow
3:55 PM 22.6 °F 8.3 °F 12.4 °F 65% 29.81 in 7.0 mi West 18.4 mph 26.5 mph N/A Snow Light Snow
4:15 PM 22.5 °F 6.5 °F 12.4 °F 65% 29.81 in 7.0 mi West 23.0 mph 27.6 mph N/A Snow Light Snow
4:35 PM 22.3 °F 8.7 °F 11.3 °F 63% 29.83 in 10.0 mi West 16.1 mph 24.2 mph N/A   Overcast
4:55 PM 22.1 °F 8.5 °F 11.5 °F 64% 29.84 in 10.0 mi West 16.1 mph 26.5 mph N/A   Overcast
5:15 PM 22.1 °F 7.6 °F 11.1 °F 63% 29.86 in 10.0 mi West 18.4 mph 26.5 mph N/A   Overcast
5:35 PM 21.2 °F 6.0 °F 10.2 °F 63% 29.87 in 10.0 mi West 19.6 mph 25.3 mph N/A   Overcast
5:55 PM 20.8 °F 6.8 °F 12.7 °F 71% 29.88 in 3.0 mi West 16.1 mph 24.2 mph N/A Snow Light Snow
6:15 PM 21.0 °F 6.2 °F 11.5 °F 67% 29.88 in 10.0 mi West 18.4 mph 31.1 mph N/A   Overcast
7:35 PM 19.8 °F 5.9 °F 11.7 °F 71% 29.93 in 10.0 mi WSW 15.0 mph 26.5 mph N/A   Overcast
7:55 PM 19.4 °F 5.5 °F 11.1 °F 70% 29.93 in 10.0 mi West 15.0 mph 24.2 mph N/A Snow Light Snow
8:15 PM 19.4 °F 6.6 °F 11.1 °F 70% 29.95 in 10.0 mi WSW 12.7 mph 19.6 mph N/A   Overcast
8:35 PM 19.2 °F 5.3 °F 10.8 °F 70% 29.95 in 10.0 mi West 15.0 mph 20.7 mph N/A Snow Light Snow
8:55 PM 19.0 °F 4.5 °F 10.4 °F 69% 29.95 in 10.0 mi West 16.1 mph 21.9 mph N/A Snow Light Snow
9:15 PM 18.9 °F 6.5 °F 10.2 °F 69% 29.95 in 10.0 mi West 11.5 mph 21.9 mph N/A   Overcast
9:35 PM 18.9 °F 4.8 °F 10.4 °F 70% 29.97 in 10.0 mi West 15.0 mph 23.0 mph N/A   Overcast
9:55 PM 18.5 °F 3.3 °F 10.0 °F 70% 29.97 in 10.0 mi WSW 17.3 mph 27.6 mph N/A   Overcast
10:15 PM 18.5 °F 3.8 °F 10.2 °F 70% 29.97 in 10.0 mi West 16.1 mph 23.0 mph N/A Snow Light Snow
10:35 PM 18.5 °F 4.9 °F 10.4 °F 71% 29.98 in 10.0 mi West 13.8 mph 23.0 mph N/A   Overcast
10:55 PM 18.5 °F 5.5 °F 10.6 °F 71% 29.98 in 7.0 mi WSW 12.7 mph 23.0 mph N/A Snow Light Snow
11:15 PM 18.5 °F 3.8 °F 10.9 °F 72% 29.97 in 10.0 mi WSW 16.1 mph 23.0 mph N/A   Overcast
11:35 PM 18.5 °F 6.1 °F 11.1 °F 73% 29.98 in 10.0 mi WSW 11.5 mph 23.0 mph N/A   Overcast
11:55 PM 18.7 °F 5.7 °F 11.1 °F 72% 29.98 in 10.0 mi West 12.7 mph 28.8 mph N/A   Overcast